Time;durP1;ratioP1;P1;durP2;ratioP2;P2;SDS_P1;SDS_P2;PMS_P1;PMS_P2;Temp;Humidity;BMP_temperature;BMP_pressure;BME280_temperature;BME280_humidity;BME280_pressure;Samples;Min_cycle;Max_cycle;Signal;HPM_P1;HPM_P2
2021/12/26 00:00:07;;;;;;;5.97;3.10;;;;;;;;;;5038581;28;20099;-70
2021/12/26 00:02:33;;;;;;;8.43;3.03;;;;;;;;;;5040812;28;20148;-70
2021/12/26 00:04:59;;;;;;;9.65;3.05;;;;;;;;;;5043865;28;20033;-70
2021/12/26 00:07:25;;;;;;;8.75;2.80;;;;;;;;;;5043101;28;20037;-71
2021/12/26 00:09:51;;;;;;;7.28;3.15;;;;;;;;;;5044098;28;20160;-70
2021/12/26 00:12:17;;;;;;;5.75;2.75;;;;;;;;;;5041548;28;20132;-70
2021/12/26 00:14:43;;;;;;;5.50;2.92;;;;;;;;;;5040202;28;20099;-70
2021/12/26 00:17:09;;;;;;;8.02;2.90;;;;;;;;;;5056120;28;20033;-70
2021/12/26 00:19:35;;;;;;;7.00;3.00;;;;;;;;;;5045832;28;20028;-72
2021/12/26 00:22:01;;;;;;;6.20;3.17;;;;;;;;;;5042280;28;20171;-71
2021/12/26 00:24:28;;;;;;;5.35;2.83;;;;;;;;;;5042537;28;20076;-70
2021/12/26 00:26:54;;;;;;;6.97;2.70;;;;;;;;;;5042072;28;20047;-69
2021/12/26 00:29:20;;;;;;;8.18;2.85;;;;;;;;;;5040780;28;20111;-70
2021/12/26 00:31:46;;;;;;;5.63;3.08;;;;;;;;;;5042828;28;20075;-70
2021/12/26 00:34:12;;;;;;;7.88;2.90;;;;;;;;;;5042134;28;20061;-70
2021/12/26 00:36:38;;;;;;;4.80;2.70;;;;;;;;;;5041943;28;20037;-70
2021/12/26 00:39:05;;;;;;;9.10;3.50;;;;;;;;;;5045640;28;20021;-71
2021/12/26 00:41:31;;;;;;;7.03;2.90;;;;;;;;;;5042468;28;20048;-73
2021/12/26 00:43:57;;;;;;;7.57;2.60;;;;;;;;;;5046585;28;20131;-70
2021/12/26 00:46:23;;;;;;;6.78;2.88;;;;;;;;;;5044509;28;20020;-70
2021/12/26 00:48:49;;;;;;;6.85;2.85;;;;;;;;;;5031998;28;20033;-70
2021/12/26 00:51:15;;;;;;;6.50;2.80;;;;;;;;;;5037044;28;20490;-72
2021/12/26 00:53:41;;;;;;;6.10;2.80;;;;;;;;;;5043258;28;20090;-69
2021/12/26 00:56:07;;;;;;;6.68;2.85;;;;;;;;;;5040512;28;20031;-69
2021/12/26 00:58:33;;;;;;;5.55;2.40;;;;;;;;;;5054578;28;20029;-70
2021/12/26 01:01:00;;;;;;;6.13;3.03;;;;;;;;;;5040833;28;20049;-70
2021/12/26 01:03:26;;;;;;;7.10;2.83;;;;;;;;;;5038840;28;20028;-70
2021/12/26 01:05:54;;;;;;;5.60;3.10;;;;;;;;;;5040795;28;20041;-70
2021/12/26 01:08:24;;;;;;;6.95;3.10;;;;;;;;;;5042204;28;20036;-70
2021/12/26 01:10:54;;;;;;;3.47;2.08;;;;;;;;;;5038622;28;20428;-70
2021/12/26 01:13:36;;;;;;;4.43;2.33;;;;;;;;;;5038103;28;20520;-70
2021/12/26 01:16:04;;;;;;;6.32;3.00;;;;;;;;;;5042122;28;20477;-70
2021/12/26 01:18:32;;;;;;;5.07;2.80;;;;;;;;;;5040775;28;20041;-70
2021/12/26 01:21:06;;;;;;;7.80;2.70;;;;;;;;;;5037479;28;20028;-69
2021/12/26 01:23:33;;;;;;;9.38;2.88;;;;;;;;;;5044277;28;20052;-70
2021/12/26 01:25:59;;;;;;;5.80;2.85;;;;;;;;;;5042023;28;20029;-71
2021/12/26 01:28:28;;;;;;;6.97;2.85;;;;;;;;;;5038391;28;20387;-71
2021/12/26 01:30:54;;;;;;;8.18;2.92;;;;;;;;;;5043155;28;20044;-71
2021/12/26 01:33:21;;;;;;;5.82;3.20;;;;;;;;;;5044338;28;20564;-71
2021/12/26 01:35:47;;;;;;;6.72;3.28;;;;;;;;;;5041583;28;20112;-70
2021/12/26 01:38:14;;;;;;;5.70;2.85;;;;;;;;;;5037417;28;20507;-70
2021/12/26 01:40:47;;;;;;;5.68;2.72;;;;;;;;;;5040336;28;20025;-70
2021/12/26 01:43:14;;;;;;;6.00;2.80;;;;;;;;;;5037804;28;20163;-70
2021/12/26 01:45:41;;;;;;;6.47;3.20;;;;;;;;;;5040074;28;20025;-70
2021/12/26 01:48:07;;;;;;;5.72;2.63;;;;;;;;;;5042896;28;20037;-70
2021/12/26 01:50:33;;;;;;;6.13;2.85;;;;;;;;;;5040340;28;20132;-70
2021/12/26 01:53:00;;;;;;;6.10;2.75;;;;;;;;;;5040653;28;20480;-70
2021/12/26 01:55:38;;;;;;;7.53;2.72;;;;;;;;;;5042330;28;20095;-70
2021/12/26 01:58:05;;;;;;;6.03;3.28;;;;;;;;;;5041674;28;20025;-70
2021/12/26 02:00:31;;;;;;;7.65;3.35;;;;;;;;;;5043206;28;20440;-70
2021/12/26 02:02:57;;;;;;;6.40;2.92;;;;;;;;;;5039584;28;20086;-70
2021/12/26 02:05:23;;;;;;;5.53;2.80;;;;;;;;;;5041665;28;20043;-70
2021/12/26 02:07:49;;;;;;;4.90;3.25;;;;;;;;;;5038651;28;20120;-70
2021/12/26 02:10:16;;;;;;;5.57;2.72;;;;;;;;;;5041405;28;20029;-70
2021/12/26 02:12:42;;;;;;;6.57;2.88;;;;;;;;;;5042712;28;20037;-71
2021/12/26 02:15:09;;;;;;;6.47;3.05;;;;;;;;;;5036297;28;20044;-70
2021/12/26 02:17:35;;;;;;;6.60;3.03;;;;;;;;;;5053059;28;20048;-70
2021/12/26 02:20:16;;;;;;;12.45;3.25;;;;;;;;;;5040312;28;20027;-70
2021/12/26 02:22:47;;;;;;;5.07;2.78;;;;;;;;;;5042290;28;20029;-70
2021/12/26 02:27:54;;;;;;;6.95;2.60;;;;;;;;;;5039831;28;20107;-69
2021/12/26 02:30:21;;;;;;;6.20;2.70;;;;;;;;;;5043006;28;20024;-71
2021/12/26 02:32:49;;;;;;;6.32;3.03;;;;;;;;;;5045726;28;20497;-71
2021/12/26 02:35:15;;;;;;;9.73;3.15;;;;;;;;;;5041694;28;20178;-71
2021/12/26 02:37:41;;;;;;;5.40;2.90;;;;;;;;;;5033424;28;20400;-71
2021/12/26 02:40:08;;;;;;;6.22;3.10;;;;;;;;;;5036626;28;20035;-70
2021/12/26 02:42:34;;;;;;;6.50;2.70;;;;;;;;;;5036019;28;20516;-69
2021/12/26 02:45:01;;;;;;;6.10;3.00;;;;;;;;;;5041678;28;20131;-71
2021/12/26 02:47:32;;;;;;;4.72;2.85;;;;;;;;;;5040724;28;20032;-69
2021/12/26 02:49:59;;;;;;;3.53;2.55;;;;;;;;;;5038691;28;20044;-71
2021/12/26 02:52:25;;;;;;;5.43;2.80;;;;;;;;;;5035498;28;20025;-71
2021/12/26 02:54:51;;;;;;;6.38;3.10;;;;;;;;;;5039061;28;20036;-70
2021/12/26 02:57:17;;;;;;;5.05;2.72;;;;;;;;;;5033097;28;20017;-71
2021/12/26 02:59:43;;;;;;;5.28;2.22;;;;;;;;;;5057368;28;20509;-70
2021/12/26 03:02:09;;;;;;;7.22;2.75;;;;;;;;;;5026676;28;20083;-70
2021/12/26 03:04:35;;;;;;;6.82;2.65;;;;;;;;;;5042205;28;20025;-70
2021/12/26 03:07:02;;;;;;;4.78;2.80;;;;;;;;;;5042418;28;20109;-70
2021/12/26 03:09:32;;;;;;;6.32;2.90;;;;;;;;;;5036858;28;20394;-70
2021/12/26 03:11:58;;;;;;;5.78;2.83;;;;;;;;;;5039638;28;20395;-70
2021/12/26 03:14:24;;;;;;;5.55;2.92;;;;;;;;;;5043966;28;20492;-70
2021/12/26 03:16:50;;;;;;;4.88;2.25;;;;;;;;;;5041419;28;20104;-70
2021/12/26 03:19:17;;;;;;;5.95;3.10;;;;;;;;;;5039739;28;20053;-70
2021/12/26 03:21:43;;;;;;;6.18;3.10;;;;;;;;;;5042296;28;20032;-70
2021/12/26 03:24:09;;;;;;;6.10;2.78;;;;;;;;;;5047646;28;20037;-70
2021/12/26 03:26:35;;;;;;;7.25;3.20;;;;;;;;;;5042971;28;20457;-70
2021/12/26 03:29:01;;;;;;;8.25;3.25;;;;;;;;;;5041249;28;20042;-69
2021/12/26 03:31:27;;;;;;;10.60;3.05;;;;;;;;;;5043720;28;20038;-70
2021/12/26 03:33:53;;;;;;;9.95;2.95;;;;;;;;;;5045105;28;20398;-69
2021/12/26 03:36:19;;;;;;;6.80;3.33;;;;;;;;;;5041435;28;20446;-69
2021/12/26 03:38:45;;;;;;;7.07;2.85;;;;;;;;;;5042732;28;20033;-70
2021/12/26 03:41:12;;;;;;;6.45;2.55;;;;;;;;;;5036831;28;20542;-69
2021/12/26 03:43:38;;;;;;;5.63;2.70;;;;;;;;;;5040507;28;20140;-69
2021/12/26 03:46:04;;;;;;;7.65;3.13;;;;;;;;;;5043495;28;20583;-70
2021/12/26 03:48:30;;;;;;;5.78;2.80;;;;;;;;;;5045905;28;20025;-70
2021/12/26 03:50:58;;;;;;;5.88;2.40;;;;;;;;;;5059211;28;20040;-70
2021/12/26 03:53:24;;;;;;;4.90;2.60;;;;;;;;;;5037876;28;20021;-70
2021/12/26 03:55:51;;;;;;;5.72;2.78;;;;;;;;;;5039561;28;20540;-70
2021/12/26 03:58:17;;;;;;;5.55;2.80;;;;;;;;;;5043198;28;20458;-69
2021/12/26 04:00:44;;;;;;;7.00;2.65;;;;;;;;;;5042275;28;20178;-69
2021/12/26 04:03:10;;;;;;;4.32;2.65;;;;;;;;;;5045552;28;20029;-70
2021/12/26 04:05:36;;;;;;;5.35;2.72;;;;;;;;;;5038638;28;20040;-69
2021/12/26 04:08:03;;;;;;;5.47;2.80;;;;;;;;;;5046493;28;20033;-70
2021/12/26 04:10:29;;;;;;;5.25;2.65;;;;;;;;;;5042047;28;20386;-70
2021/12/26 04:12:55;;;;;;;5.60;2.55;;;;;;;;;;5045527;28;20064;-68
2021/12/26 04:15:23;;;;;;;9.13;3.28;;;;;;;;;;5044118;28;20551;-70
2021/12/26 04:17:51;;;;;;;5.00;2.70;;;;;;;;;;5042253;28;20032;-71
2021/12/26 04:20:17;;;;;;;7.85;3.20;;;;;;;;;;5062819;28;20426;-70
2021/12/26 04:22:43;;;;;;;5.80;2.80;;;;;;;;;;5046749;28;20021;-71
2021/12/26 04:25:10;;;;;;;5.63;3.00;;;;;;;;;;5044759;28;20136;-70
2021/12/26 04:27:36;;;;;;;5.30;2.60;;;;;;;;;;5041133;28;20038;-70
2021/12/26 04:30:05;;;;;;;5.78;2.63;;;;;;;;;;5043609;28;20108;-71
2021/12/26 04:32:31;;;;;;;4.43;2.88;;;;;;;;;;5035627;28;20041;-69
2021/12/26 04:34:57;;;;;;;6.07;2.85;;;;;;;;;;5040869;28;20033;-71
2021/12/26 04:37:23;;;;;;;10.30;3.38;;;;;;;;;;5026278;28;20025;-72
2021/12/26 04:39:49;;;;;;;8.70;2.80;;;;;;;;;;5041217;28;20031;-69
2021/12/26 04:42:15;;;;;;;6.38;2.75;;;;;;;;;;5040300;28;20025;-69
2021/12/26 04:44:41;;;;;;;8.02;3.30;;;;;;;;;;5043168;28;20078;-69
2021/12/26 04:47:08;;;;;;;5.25;2.97;;;;;;;;;;5041296;28;21873;-69
2021/12/26 04:49:34;;;;;;;8.55;2.53;;;;;;;;;;5041315;28;20486;-70
2021/12/26 04:52:00;;;;;;;5.07;2.60;;;;;;;;;;5043701;28;20040;-70
2021/12/26 04:54:26;;;;;;;5.78;3.20;;;;;;;;;;5041191;28;20136;-70
2021/12/26 04:56:52;;;;;;;6.90;2.75;;;;;;;;;;5056648;28;20069;-69
2021/12/26 04:59:18;;;;;;;6.90;2.92;;;;;;;;;;5043937;28;20082;-70
2021/12/26 05:01:44;;;;;;;6.47;3.33;;;;;;;;;;5042117;28;21605;-70
2021/12/26 05:04:10;;;;;;;6.82;3.13;;;;;;;;;;5047114;28;20035;-69
2021/12/26 05:06:37;;;;;;;7.97;3.10;;;;;;;;;;5040971;28;20055;-71
2021/12/26 05:09:03;;;;;;;10.13;3.58;;;;;;;;;;5055622;28;20033;-70
2021/12/26 05:11:29;;;;;;;6.32;2.80;;;;;;;;;;5039482;28;20128;-72
2021/12/26 05:13:55;;;;;;;6.80;3.10;;;;;;;;;;5039228;28;20067;-71
2021/12/26 05:16:21;;;;;;;6.30;3.28;;;;;;;;;;5044230;28;20037;-70
2021/12/26 05:18:47;;;;;;;5.18;2.70;;;;;;;;;;5044888;28;20482;-70
2021/12/26 05:21:13;;;;;;;6.15;2.90;;;;;;;;;;5043264;28;20525;-70
2021/12/26 05:23:39;;;;;;;8.65;3.20;;;;;;;;;;5044661;28;20021;-70
2021/12/26 05:26:05;;;;;;;4.90;2.90;;;;;;;;;;5042011;28;20033;-71
2021/12/26 05:28:31;;;;;;;4.47;2.47;;;;;;;;;;5040563;28;20033;-70
2021/12/26 05:30:57;;;;;;;4.88;2.83;;;;;;;;;;5038893;28;20030;-70
2021/12/26 05:33:23;;;;;;;5.88;2.92;;;;;;;;;;5038764;28;20029;-70
2021/12/26 05:35:49;;;;;;;4.78;2.88;;;;;;;;;;5040408;28;20044;-70
2021/12/26 05:38:15;;;;;;;7.20;2.80;;;;;;;;;;5042400;28;20029;-70
2021/12/26 05:40:43;;;;;;;9.90;3.10;;;;;;;;;;5054910;28;20039;-71
2021/12/26 05:43:09;;;;;;;4.43;2.60;;;;;;;;;;5037670;28;20033;-72
2021/12/26 05:45:35;;;;;;;5.00;2.58;;;;;;;;;;5041083;28;20037;-70
2021/12/26 05:48:02;;;;;;;3.95;2.42;;;;;;;;;;5039079;28;20111;-70
2021/12/26 05:50:28;;;;;;;7.20;2.67;;;;;;;;;;5043259;28;20036;-70
2021/12/26 05:52:54;;;;;;;4.95;2.90;;;;;;;;;;5042432;28;20039;-70
2021/12/26 05:55:20;;;;;;;6.75;2.92;;;;;;;;;;5058156;28;20471;-70
2021/12/26 05:57:46;;;;;;;5.60;3.17;;;;;;;;;;5043421;28;20047;-71
2021/12/26 06:00:14;;;;;;;6.20;2.80;;;;;;;;;;5024407;28;20046;-69
2021/12/26 06:02:40;;;;;;;6.00;2.70;;;;;;;;;;5042291;28;20110;-70
2021/12/26 06:05:07;;;;;;;4.93;2.65;;;;;;;;;;5055920;28;20025;-69
2021/12/26 06:07:33;;;;;;;5.35;2.70;;;;;;;;;;5038361;28;20128;-69
2021/12/26 06:09:59;;;;;;;6.95;3.25;;;;;;;;;;5040782;28;20039;-70
2021/12/26 06:12:25;;;;;;;4.55;2.53;;;;;;;;;;5038481;28;20037;-70
2021/12/26 06:14:51;;;;;;;7.75;2.67;;;;;;;;;;5039857;28;20032;-69
2021/12/26 06:17:17;;;;;;;5.53;2.88;;;;;;;;;;5054183;28;20036;-70
2021/12/26 06:19:43;;;;;;;4.50;2.78;;;;;;;;;;5041114;28;20115;-70
2021/12/26 06:22:09;;;;;;;4.85;2.50;;;;;;;;;;5041761;28;20233;-71
2021/12/26 06:24:35;;;;;;;6.28;3.08;;;;;;;;;;5044694;28;20040;-70
2021/12/26 06:27:01;;;;;;;4.13;2.63;;;;;;;;;;5053275;28;20025;-71
2021/12/26 06:29:27;;;;;;;5.30;2.65;;;;;;;;;;5027402;28;20032;-71
2021/12/26 06:31:53;;;;;;;7.72;2.97;;;;;;;;;;5040033;28;20035;-71
2021/12/26 06:34:19;;;;;;;5.57;2.58;;;;;;;;;;5039931;28;20128;-71
2021/12/26 06:36:45;;;;;;;6.97;2.83;;;;;;;;;;5040335;28;20132;-71
2021/12/26 06:39:11;;;;;;;6.55;2.95;;;;;;;;;;5037421;28;20478;-70
2021/12/26 06:41:38;;;;;;;5.32;2.90;;;;;;;;;;5039788;28;20036;-71
2021/12/26 06:44:07;;;;;;;4.70;2.55;;;;;;;;;;5041572;28;20108;-71
2021/12/26 06:46:34;;;;;;;4.95;2.95;;;;;;;;;;5043779;28;20105;-70
2021/12/26 06:49:00;;;;;;;4.43;2.50;;;;;;;;;;5039245;28;20221;-70
2021/12/26 06:51:26;;;;;;;6.53;3.28;;;;;;;;;;5053803;28;20392;-70
2021/12/26 06:53:52;;;;;;;5.20;2.67;;;;;;;;;;5044421;28;20033;-70
2021/12/26 06:56:18;;;;;;;5.85;2.78;;;;;;;;;;5047533;28;20371;-69
2021/12/26 06:58:44;;;;;;;5.50;2.85;;;;;;;;;;5047623;28;20025;-70
2021/12/26 07:01:10;;;;;;;5.60;3.10;;;;;;;;;;5039436;28;20450;-70
2021/12/26 07:03:36;;;;;;;6.20;2.92;;;;;;;;;;5042558;28;20255;-70
2021/12/26 07:06:03;;;;;;;5.13;2.90;;;;;;;;;;5043928;28;20025;-70
2021/12/26 07:08:29;;;;;;;5.88;2.72;;;;;;;;;;5042051;28;20329;-71
2021/12/26 07:10:55;;;;;;;6.60;2.97;;;;;;;;;;5059252;28;20124;-70
2021/12/26 07:13:21;;;;;;;5.05;3.00;;;;;;;;;;5044834;28;20029;-69
2021/12/26 07:15:47;;;;;;;5.15;2.50;;;;;;;;;;5044601;28;20080;-70
2021/12/26 07:18:13;;;;;;;5.47;2.97;;;;;;;;;;5041376;28;20024;-70
2021/12/26 07:20:40;;;;;;;5.18;2.83;;;;;;;;;;5038334;28;20047;-70
2021/12/26 07:23:06;;;;;;;6.30;2.65;;;;;;;;;;5040992;28;20524;-70
2021/12/26 07:25:32;;;;;;;6.57;2.90;;;;;;;;;;5045415;28;20492;-70
2021/12/26 07:27:58;;;;;;;5.82;2.85;;;;;;;;;;5045989;28;20029;-70
2021/12/26 07:30:24;;;;;;;7.82;2.95;;;;;;;;;;5027143;28;20021;-72
2021/12/26 07:32:50;;;;;;;4.72;2.63;;;;;;;;;;5042392;28;20112;-69
2021/12/26 07:35:16;;;;;;;4.45;2.45;;;;;;;;;;5041314;28;20124;-70
2021/12/26 07:37:42;;;;;;;5.25;2.70;;;;;;;;;;5036941;28;20057;-70
2021/12/26 07:40:09;;;;;;;5.57;3.13;;;;;;;;;;5045360;28;20275;-71
2021/12/26 07:42:35;;;;;;;4.03;2.50;;;;;;;;;;5039363;28;20092;-70
2021/12/26 07:45:01;;;;;;;4.45;2.78;;;;;;;;;;5046357;28;20037;-70
2021/12/26 07:47:27;;;;;;;6.05;2.83;;;;;;;;;;5056199;28;20040;-69
2021/12/26 07:49:53;;;;;;;6.60;2.80;;;;;;;;;;5056412;28;20075;-72
2021/12/26 07:52:24;;;;;;;6.90;3.22;;;;;;;;;;5040014;28;20090;-70
2021/12/26 07:54:50;;;;;;;;;;;;;;;;;;5042906;28;20478;-70
2021/12/26 07:57:16;;;;;;;6.40;3.42;;;;;;;;;;5038740;28;19917;-70
2021/12/26 07:59:42;;;;;;;7.85;3.22;;;;;;;;;;5038255;28;20096;-70
2021/12/26 08:02:08;;;;;;;5.40;2.75;;;;;;;;;;5046259;28;20047;-70
2021/12/26 08:04:34;;;;;;;6.43;3.20;;;;;;;;;;5040941;28;20033;-69
2021/12/26 08:07:01;;;;;;;4.82;2.80;;;;;;;;;;5039857;28;20450;-71
2021/12/26 08:09:27;;;;;;;6.43;3.40;;;;;;;;;;5044884;28;20122;-71
2021/12/26 08:11:53;;;;;;;6.30;3.22;;;;;;;;;;5045674;28;20043;-70
2021/12/26 08:14:20;;;;;;;5.90;2.90;;;;;;;;;;5044186;28;20048;-70
2021/12/26 08:16:46;;;;;;;8.73;3.85;;;;;;;;;;5038234;28;20043;-70
2021/12/26 08:19:12;;;;;;;13.20;3.40;;;;;;;;;;5043272;28;20021;-70
2021/12/26 08:21:38;;;;;;;6.20;3.15;;;;;;;;;;5043161;28;20073;-70
2021/12/26 08:24:26;;;;;;;6.57;3.47;;;;;;;;;;5042958;28;20123;-70
2021/12/26 08:26:52;;;;;;;7.57;3.83;;;;;;;;;;5041027;28;20032;-69
2021/12/26 08:29:23;;;;;;;6.90;3.85;;;;;;;;;;5043273;28;20017;-69
2021/12/26 08:31:55;;;;;;;5.70;3.40;;;;;;;;;;5043698;28;20021;-72
2021/12/26 08:34:22;;;;;;;7.18;3.08;;;;;;;;;;5042969;28;20046;-71
2021/12/26 08:37:01;;;;;;;6.43;3.13;;;;;;;;;;5038003;28;20032;-71
2021/12/26 08:39:28;;;;;;;6.10;3.33;;;;;;;;;;5041212;28;20120;-71
2021/12/26 08:41:54;;;;;;;8.43;3.15;;;;;;;;;;5054499;28;20501;-69
2021/12/26 08:44:20;;;;;;;7.25;3.13;;;;;;;;;;5041534;28;20134;-69
2021/12/26 08:46:46;;;;;;;4.68;2.70;;;;;;;;;;5041452;28;20033;-70
2021/12/26 08:49:13;;;;;;;6.20;3.10;;;;;;;;;;5044660;28;20574;-70
2021/12/26 08:51:39;;;;;;;5.85;3.42;;;;;;;;;;5035954;28;20120;-69
2021/12/26 08:54:05;;;;;;;4.85;2.97;;;;;;;;;;5040614;28;20040;-70
2021/12/26 08:56:31;;;;;;;5.53;3.13;;;;;;;;;;5046820;28;20108;-69
2021/12/26 08:58:57;;;;;;;5.50;3.08;;;;;;;;;;5044438;28;20040;-69
2021/12/26 09:01:23;;;;;;;7.18;3.05;;;;;;;;;;5039786;28;20514;-69
2021/12/26 09:03:49;;;;;;;6.45;3.30;;;;;;;;;;5039039;28;20116;-69
2021/12/26 09:06:15;;;;;;;6.72;3.30;;;;;;;;;;5040957;28;20051;-69
2021/12/26 09:08:41;;;;;;;7.57;3.67;;;;;;;;;;5039801;28;20431;-69
2021/12/26 09:11:07;;;;;;;6.43;3.70;;;;;;;;;;5039117;28;20128;-69
2021/12/26 09:13:35;;;;;;;6.13;3.33;;;;;;;;;;5052088;28;20068;-71
2021/12/26 09:16:01;;;;;;;6.50;3.17;;;;;;;;;;5024197;28;20041;-70
2021/12/26 09:18:27;;;;;;;7.15;3.70;;;;;;;;;;5038825;28;20041;-70
2021/12/26 09:20:54;;;;;;;7.78;3.92;;;;;;;;;;5038730;28;20029;-70
2021/12/26 09:23:20;;;;;;;5.80;3.03;;;;;;;;;;5038380;28;20501;-70
2021/12/26 09:25:46;;;;;;;5.65;3.40;;;;;;;;;;5037706;28;20119;-70
2021/12/26 09:28:12;;;;;;;5.78;3.40;;;;;;;;;;5039662;28;20097;-69
2021/12/26 09:30:38;;;;;;;5.55;3.03;;;;;;;;;;5041193;28;20031;-70
2021/12/26 09:33:04;;;;;;;7.68;3.65;;;;;;;;;;5040514;28;20055;-69
2021/12/26 09:35:32;;;;;;;6.10;3.63;;;;;;;;;;5051011;28;20033;-71
2021/12/26 09:37:58;;;;;;;5.93;3.22;;;;;;;;;;5038447;28;20043;-73
2021/12/26 09:40:24;;;;;;;7.72;3.85;;;;;;;;;;5027069;28;20029;-70
2021/12/26 09:42:50;;;;;;;13.98;3.50;;;;;;;;;;5036444;28;20026;-69
2021/12/26 09:45:18;;;;;;;8.75;3.58;;;;;;;;;;5034797;28;20060;-69
2021/12/26 09:47:49;;;;;;;7.97;3.70;;;;;;;;;;5033666;28;20044;-70
2021/12/26 09:50:16;;;;;;;6.05;3.65;;;;;;;;;;5041019;28;20035;-72
2021/12/26 09:52:47;;;;;;;8.80;4.20;;;;;;;;;;5040532;28;20041;-69
2021/12/26 09:55:13;;;;;;;6.80;3.65;;;;;;;;;;5039085;28;20047;-70
2021/12/26 09:57:40;;;;;;;5.80;3.33;;;;;;;;;;5040262;28;20494;-70
2021/12/26 10:00:24;;;;;;;5.70;3.58;;;;;;;;;;5037526;28;20037;-69
2021/12/26 10:03:09;;;;;;;8.20;4.03;;;;;;;;;;5033240;28;20130;-70
2021/12/26 10:05:54;;;;;;;6.57;3.92;;;;;;;;;;5036418;28;20040;-69
2021/12/26 10:08:20;;;;;;;14.73;5.80;;;;;;;;;;5036157;28;20061;-70
2021/12/26 10:11:05;;;;;;;13.68;3.53;;;;;;;;;;5041761;28;20132;-70
2021/12/26 10:13:38;;;;;;;9.77;4.00;;;;;;;;;;5040666;28;20497;-70
2021/12/26 10:16:04;;;;;;;7.85;3.97;;;;;;;;;;5052057;28;20037;-69
2021/12/26 10:18:30;;;;;;;7.72;3.90;;;;;;;;;;5039121;28;20036;-70
2021/12/26 10:20:58;;;;;;;7.35;4.20;;;;;;;;;;5038754;28;20140;-71
2021/12/26 10:23:25;;;;;;;9.00;4.47;;;;;;;;;;5038033;28;20021;-71
2021/12/26 10:25:51;;;;;;;7.97;4.22;;;;;;;;;;5038228;28;20192;-69
2021/12/26 10:28:17;;;;;;;7.28;4.05;;;;;;;;;;5039291;28;20037;-69
2021/12/26 10:30:43;;;;;;;6.60;3.90;;;;;;;;;;5041662;28;20032;-71
2021/12/26 10:33:09;;;;;;;10.50;4.15;;;;;;;;;;5040513;28;21498;-68
2021/12/26 10:35:36;;;;;;;7.20;3.67;;;;;;;;;;5038155;28;20120;-71
2021/12/26 10:38:02;;;;;;;8.95;4.60;;;;;;;;;;5039479;28;20029;-71
2021/12/26 10:40:31;;;;;;;8.32;4.53;;;;;;;;;;5037855;28;20037;-69
2021/12/26 10:42:57;;;;;;;7.28;4.32;;;;;;;;;;5037816;28;20486;-70
2021/12/26 10:45:25;;;;;;;6.82;4.07;;;;;;;;;;5024635;28;20053;-71
2021/12/26 10:47:53;;;;;;;11.02;4.78;;;;;;;;;;5038697;28;20478;-71
2021/12/26 10:50:20;;;;;;;8.55;4.53;;;;;;;;;;5041037;28;20033;-71
2021/12/26 10:52:51;;;;;;;10.88;5.03;;;;;;;;;;5040727;28;20028;-70
2021/12/26 10:55:26;;;;;;;7.93;4.90;;;;;;;;;;5037100;28;20025;-73
2021/12/26 10:57:53;;;;;;;7.53;4.28;;;;;;;;;;5036417;28;20029;-71
2021/12/26 11:00:25;;;;;;;7.22;4.35;;;;;;;;;;5051223;28;20375;-69
2021/12/26 11:02:52;;;;;;;10.15;5.00;;;;;;;;;;5038840;28;20049;-71
2021/12/26 11:05:21;;;;;;;8.95;4.68;;;;;;;;;;5038041;28;20044;-71
2021/12/26 11:07:51;;;;;;;10.02;5.00;;;;;;;;;;5035837;28;20047;-70
2021/12/26 11:10:28;;;;;;;9.95;5.00;;;;;;;;;;5040577;28;20116;-71
2021/12/26 11:12:56;;;;;;;8.60;5.35;;;;;;;;;;5038363;28;20482;-69
2021/12/26 11:15:23;;;;;;;8.82;5.18;;;;;;;;;;5040246;28;20026;-70
2021/12/26 11:17:51;;;;;;;9.55;4.97;;;;;;;;;;5039355;28;20440;-70
2021/12/26 11:20:19;;;;;;;8.05;4.90;;;;;;;;;;5041184;28;20031;-70
2021/12/26 11:22:46;;;;;;;8.45;5.22;;;;;;;;;;5043273;28;20027;-71
2021/12/26 11:25:12;;;;;;;10.45;5.60;;;;;;;;;;5040812;28;20494;-71
2021/12/26 11:27:38;;;;;;;11.05;6.10;;;;;;;;;;5042848;28;20041;-71
2021/12/26 11:30:07;;;;;;;11.80;5.78;;;;;;;;;;5037107;28;20506;-71
2021/12/26 11:32:33;;;;;;;10.07;5.75;;;;;;;;;;5041322;28;20186;-72
2021/12/26 11:35:00;;;;;;;8.95;5.57;;;;;;;;;;5038900;28;20083;-71
2021/12/26 11:37:27;;;;;;;12.25;5.70;;;;;;;;;;5037628;28;20030;-71
2021/12/26 11:39:53;;;;;;;14.75;5.47;;;;;;;;;;5041173;28;20052;-71
2021/12/26 11:42:36;;;;;;;11.25;5.70;;;;;;;;;;5041613;28;20021;-71
2021/12/26 11:45:12;;;;;;;13.13;6.20;;;;;;;;;;5044267;28;20443;-71
2021/12/26 11:48:00;;;;;;;9.65;5.60;;;;;;;;;;5048018;28;20017;-70
2021/12/26 11:50:26;;;;;;;11.57;6.00;;;;;;;;;;5042139;28;20108;-71
2021/12/26 11:53:08;;;;;;;11.32;5.90;;;;;;;;;;5040048;28;20148;-71
2021/12/26 11:55:34;;;;;;;14.65;5.40;;;;;;;;;;5040382;28;20036;-71
2021/12/26 11:58:03;;;;;;;9.40;5.65;;;;;;;;;;5044809;28;20039;-71
2021/12/26 12:00:33;;;;;;;10.90;5.55;;;;;;;;;;5039686;28;20129;-72
2021/12/26 12:03:00;;;;;;;14.77;6.27;;;;;;;;;;5040871;28;20098;-72
2021/12/26 12:05:29;;;;;;;9.60;6.00;;;;;;;;;;5044420;28;20287;-72
2021/12/26 12:08:03;;;;;;;12.63;6.25;;;;;;;;;;5043127;28;20516;-72
2021/12/26 12:10:32;;;;;;;11.98;5.80;;;;;;;;;;5042473;28;20047;-71
2021/12/26 12:12:58;;;;;;;10.98;5.75;;;;;;;;;;5040640;28;20036;-73
2021/12/26 12:15:43;;;;;;;10.52;5.40;;;;;;;;;;5042170;28;20051;-70
2021/12/26 12:18:13;;;;;;;16.05;7.28;;;;;;;;;;5040789;28;20124;-71
2021/12/26 12:20:39;;;;;;;12.52;6.75;;;;;;;;;;5035788;28;20021;-71
2021/12/26 12:23:08;;;;;;;10.82;5.70;;;;;;;;;;5043467;28;20383;-71
2021/12/26 12:25:35;;;;;;;9.95;6.13;;;;;;;;;;5037418;28;20041;-71
2021/12/26 12:28:04;;;;;;;10.93;6.60;;;;;;;;;;5040343;28;20024;-72
2021/12/26 12:30:30;;;;;;;10.98;6.40;;;;;;;;;;5039991;28;20290;-72
2021/12/26 12:33:13;;;;;;;13.32;7.00;;;;;;;;;;5040629;28;20048;-71
2021/12/26 12:35:50;;;;;;;14.57;6.20;;;;;;;;;;5035483;28;20036;-72
2021/12/26 12:38:21;;;;;;;13.02;7.07;;;;;;;;;;5043431;28;20055;-71
2021/12/26 12:40:47;;;;;;;15.35;7.18;;;;;;;;;;5042259;28;20099;-72
2021/12/26 12:43:15;;;;;;;10.75;6.60;;;;;;;;;;5042953;28;20040;-71
2021/12/26 12:45:58;;;;;;;21.65;7.63;;;;;;;;;;5055560;28;20127;-71
2021/12/26 12:48:26;;;;;;;16.80;5.95;;;;;;;;;;5043113;28;20100;-72
2021/12/26 12:50:53;;;;;;;11.55;6.85;;;;;;;;;;5038209;28;20132;-70
2021/12/26 12:53:40;;;;;;;10.90;6.38;;;;;;;;;;5038693;28;20025;-70
2021/12/26 12:56:10;;;;;;;11.30;6.55;;;;;;;;;;5041568;28;20029;-70
2021/12/26 12:58:37;;;;;;;9.45;6.43;;;;;;;;;;5040642;28;20037;-70
2021/12/26 13:01:06;;;;;;;12.50;6.72;;;;;;;;;;5042110;28;20709;-71
2021/12/26 13:03:36;;;;;;;11.90;6.18;;;;;;;;;;5041588;28;20828;-72
2021/12/26 13:06:07;;;;;;;11.77;7.23;;;;;;;;;;5042346;28;20034;-73
2021/12/26 13:08:33;;;;;;;11.43;6.97;;;;;;;;;;5037777;28;20370;-71
2021/12/26 13:11:01;;;;;;;12.15;6.35;;;;;;;;;;5037239;28;20102;-72
2021/12/26 13:13:27;;;;;;;11.30;6.68;;;;;;;;;;5040094;28;20040;-72
2021/12/26 13:15:55;;;;;;;10.63;6.43;;;;;;;;;;5044589;28;20041;-72
2021/12/26 13:18:23;;;;;;;12.50;7.13;;;;;;;;;;5055816;28;20025;-72
2021/12/26 13:20:53;;;;;;;12.68;6.75;;;;;;;;;;5041290;28;20017;-72
2021/12/26 13:23:19;;;;;;;12.40;6.30;;;;;;;;;;5039816;28;20127;-72
2021/12/26 13:25:48;;;;;;;13.18;6.68;;;;;;;;;;5039141;28;20076;-71
2021/12/26 13:28:17;;;;;;;13.10;7.88;;;;;;;;;;5037617;28;20060;-71
2021/12/26 13:30:44;;;;;;;11.57;6.47;;;;;;;;;;5039713;28;20403;-71
2021/12/26 13:33:19;;;;;;;11.95;6.97;;;;;;;;;;5022686;28;20033;-71
2021/12/26 13:35:45;;;;;;;16.48;7.15;;;;;;;;;;5040018;28;20025;-71
2021/12/26 13:38:12;;;;;;;19.90;7.40;;;;;;;;;;5039470;28;20458;-71
2021/12/26 13:40:42;;;;;;;11.75;7.03;;;;;;;;;;5038189;28;20466;-71
2021/12/26 13:43:08;;;;;;;15.00;7.00;;;;;;;;;;5038791;28;20035;-71
2021/12/26 13:45:41;;;;;;;13.60;7.90;;;;;;;;;;5042299;28;20048;-72
2021/12/26 13:48:07;;;;;;;16.35;8.68;;;;;;;;;;5041273;28;20033;-70
2021/12/26 13:50:33;;;;;;;11.82;7.15;;;;;;;;;;5037109;28;20061;-69
2021/12/26 13:53:05;;;;;;;15.02;7.82;;;;;;;;;;5033876;28;20043;-71
2021/12/26 13:55:38;;;;;;;12.25;7.22;;;;;;;;;;5039268;28;20114;-70
2021/12/26 13:58:06;;;;;;;15.27;8.05;;;;;;;;;;5037771;28;20109;-72
2021/12/26 14:00:32;;;;;;;12.95;7.57;;;;;;;;;;5038828;28;20091;-71
2021/12/26 14:03:07;;;;;;;11.85;7.53;;;;;;;;;;5037981;28;20049;-70
2021/12/26 14:05:37;;;;;;;13.50;7.70;;;;;;;;;;5038158;28;20512;-71
2021/12/26 14:08:03;;;;;;;14.55;7.75;;;;;;;;;;5040761;28;20037;-71
2021/12/26 14:10:29;;;;;;;14.38;7.40;;;;;;;;;;5024755;28;20044;-72
2021/12/26 14:13:05;;;;;;;11.77;8.07;;;;;;;;;;5037724;28;20163;-72
2021/12/26 14:15:43;;;;;;;15.95;7.65;;;;;;;;;;5037815;28;20048;-72
2021/12/26 14:18:12;;;;;;;13.95;8.55;;;;;;;;;;5041186;28;20437;-71
2021/12/26 14:20:43;;;;;;;13.30;8.05;;;;;;;;;;5036922;28;20032;-71
2021/12/26 14:23:20;;;;;;;19.60;8.27;;;;;;;;;;5041221;28;20264;-71
2021/12/26 14:25:46;;;;;;;14.57;8.80;;;;;;;;;;5041261;28;20040;-71
2021/12/26 14:28:13;;;;;;;13.10;8.27;;;;;;;;;;5039544;28;20033;-71
2021/12/26 14:30:39;;;;;;;18.00;8.65;;;;;;;;;;5037072;28;20059;-69
2021/12/26 14:33:05;;;;;;;14.52;8.30;;;;;;;;;;5026799;28;20033;-72
2021/12/26 14:35:31;;;;;;;16.58;8.10;;;;;;;;;;5038157;28;20404;-72
2021/12/26 14:38:11;;;;;;;15.48;8.23;;;;;;;;;;5052576;28;20397;-72
2021/12/26 14:40:49;;;;;;;13.55;6.68;;;;;;;;;;5052120;28;20501;-72
2021/12/26 14:43:15;;;;;;;15.95;8.52;;;;;;;;;;5036696;28;20057;-72
2021/12/26 14:45:52;;;;;;;14.45;8.80;;;;;;;;;;5053858;28;20028;-71